Time;durP1;ratioP1;P1;durP2;ratioP2;P2;SDS_P1;SDS_P2;PMS_P1;PMS_P2;Temp;Humidity;BMP_temperature;BMP_pressure;BME280_temperature;BME280_humidity;BME280_pressure;Samples;Min_cycle;Max_cycle;Signal;HPM_P1;HPM_P2
2023/06/03 00:00:56;;;;;;;5.20;3.40;;;;;;;15.28;nan;99518.66;5062530;28;20180;-79
2023/06/03 00:03:24;;;;;;;4.07;3.67;;;;;;;15.19;nan;99516.66;5059209;28;20207;-79
2023/06/03 00:05:51;;;;;;;4.20;3.50;;;;;;;15.19;nan;99517.50;5053728;28;20196;-79
2023/06/03 00:08:18;;;;;;;4.07;3.53;;;;;;;15.12;nan;99506.06;5052575;28;20229;-80
2023/06/03 00:10:45;;;;;;;4.10;3.50;;;;;;;15.14;nan;99513.91;5061337;28;20186;-78
2023/06/03 00:13:11;;;;;;;5.33;3.70;;;;;;;15.31;nan;99520.03;5055639;28;20215;-78
2023/06/03 00:15:38;;;;;;;4.03;3.57;;;;;;;15.23;nan;99515.91;5053041;28;20202;-78
2023/06/03 00:18:06;;;;;;;4.07;3.20;;;;;;;15.21;nan;99528.03;5062096;28;20193;-79
2023/06/03 00:20:35;;;;;;;4.23;3.40;;;;;;;15.20;nan;99505.63;5063948;28;20189;-78
2023/06/03 00:23:03;;;;;;;5.10;3.53;;;;;;;15.31;nan;99501.97;5055622;28;20205;-79
2023/06/03 00:25:31;;;;;;;3.97;3.37;;;;;;;15.27;nan;99502.72;5058534;28;20648;-79
2023/06/03 00:27:58;;;;;;;3.83;3.30;;;;;;;15.32;nan;99514.41;5064118;28;20648;-79
2023/06/03 00:30:25;;;;;;;3.73;3.30;;;;;;;15.31;nan;99504.66;5045366;28;20211;-79
2023/06/03 00:32:52;;;;;;;5.03;3.07;;;;;;;15.18;nan;99494.25;5061946;28;20185;-79
2023/06/03 00:35:19;;;;;;;3.43;3.10;;;;;;;15.13;nan;99493.38;5055102;28;20196;-78
2023/06/03 00:37:45;;;;;;;3.87;3.37;;;;;;;15.10;nan;99493.91;5030931;28;20255;-78
2023/06/03 00:40:12;;;;;;;4.70;3.37;;;;;;;15.14;nan;99505.81;5052500;28;20543;-78
2023/06/03 00:42:39;;;;;;;3.83;3.30;;;;;;;14.92;nan;99497.72;5062431;28;20264;-78
2023/06/03 00:45:06;;;;;;;4.60;3.60;;;;;;;15.01;nan;99498.09;5046743;28;20220;-80
2023/06/03 00:47:33;;;;;;;5.50;3.50;;;;;;;14.83;nan;99500.06;5062985;28;20654;-79
2023/06/03 00:50:00;;;;;;;4.20;3.57;;;;;;;14.89;nan;99501.72;5063015;28;20205;-79
2023/06/03 00:52:27;;;;;;;3.77;3.30;;;;;;;14.74;nan;99489.94;5059349;28;20190;-78
2023/06/03 00:54:54;;;;;;;4.57;3.37;;;;;;;14.78;nan;99499.16;5043913;28;20186;-78
2023/06/03 00:57:24;;;;;;;4.40;3.57;;;;;;;14.73;nan;99501.81;5046232;28;20374;-78
2023/06/03 00:59:50;;;;;;;4.13;3.33;;;;;;;14.81;nan;99507.56;5040983;28;21381;-79
2023/06/03 01:02:19;;;;;;;4.43;3.40;;;;;;;14.63;nan;99502.47;5045864;28;20182;-78
2023/06/03 01:04:47;;;;;;;4.03;3.57;;;;;;;14.69;nan;99500.66;5030415;28;20203;-78
2023/06/03 01:07:41;;;;;;;4.97;3.50;;;;;;;14.48;nan;99505.78;5051107;28;20180;-79
2023/06/03 01:10:30;;;;;;;4.40;3.70;;;;;;;14.62;nan;99508.09;5063256;28;20204;-79
2023/06/03 01:13:10;;;;;;;4.00;3.60;;;;;;;14.58;nan;99505.09;5049976;28;20188;-79
2023/06/03 01:15:40;;;;;;;4.80;3.40;;;;;;;14.63;nan;99504.34;5059029;28;20188;-80
2023/06/03 01:18:07;;;;;;;5.03;3.73;;;;;;;14.50;nan;99508.22;5055080;28;20250;-79
2023/06/03 01:20:34;;;;;;;3.73;3.43;;;;;;;14.42;nan;99501.34;5063390;28;20623;-80
2023/06/03 01:23:11;;;;;;;5.00;3.43;;;;;;;14.42;nan;99497.84;5063397;28;20203;-79
2023/06/03 01:25:41;;;;;;;4.20;3.53;;;;;;;14.42;nan;99495.97;5065223;28;20274;-80
2023/06/03 01:28:09;;;;;;;6.07;3.70;;;;;;;14.51;nan;99491.78;5058282;28;20187;-79
2023/06/03 01:30:36;;;;;;;4.00;3.60;;;;;;;14.39;nan;99492.97;5062434;28;20190;-80
2023/06/03 01:33:05;;;;;;;5.03;4.07;;;;;;;14.38;nan;99494.84;5056757;28;20203;-81
2023/06/03 01:35:32;;;;;;;4.17;3.40;;;;;;;14.36;nan;99490.78;5060844;28;20187;-80
2023/06/03 01:38:00;;;;;;;9.53;4.97;;;;;;;14.25;nan;99491.63;5049512;28;20211;-81
2023/06/03 01:40:27;;;;;;;4.80;3.50;;;;;;;14.22;nan;99490.25;5059384;28;20196;-81
2023/06/03 01:42:55;;;;;;;5.77;3.60;;;;;;;14.22;nan;99484.88;5045006;28;20191;-80
2023/06/03 01:45:22;;;;;;;4.23;3.70;;;;;;;14.20;nan;99505.03;5060775;28;20207;-79
2023/06/03 01:47:50;;;;;;;6.47;3.60;;;;;;;14.17;nan;99502.84;5061535;28;20183;-79
2023/06/03 01:50:17;;;;;;;5.20;3.63;;;;;;;14.15;nan;99502.25;5052835;28;20198;-80
2023/06/03 01:52:44;;;;;;;5.30;4.13;;;;;;;14.18;nan;99504.47;5062084;28;20199;-79
2023/06/03 01:55:12;;;;;;;4.50;3.70;;;;;;;14.25;nan;99503.22;5077982;28;20600;-80
2023/06/03 01:57:42;;;;;;;4.27;3.73;;;;;;;14.19;nan;99508.78;5066626;28;20213;-79
2023/06/03 02:00:10;;;;;;;5.50;3.97;;;;;;;14.20;nan;99524.72;5047178;28;20678;-80
2023/06/03 02:02:40;;;;;;;5.13;4.17;;;;;;;14.27;nan;99511.09;5060456;28;20265;-81
2023/06/03 02:05:09;;;;;;;5.43;4.10;;;;;;;14.14;nan;99508.72;5074480;28;20202;-79
2023/06/03 02:07:36;;;;;;;4.53;3.83;;;;;;;14.05;nan;99516.38;5049128;28;20205;-79
2023/06/03 02:10:04;;;;;;;4.90;4.00;;;;;;;14.02;nan;99517.69;5061357;28;20234;-79
2023/06/03 02:12:30;;;;;;;7.03;4.03;;;;;;;13.92;nan;99514.00;5062181;28;20187;-79
2023/06/03 02:14:57;;;;;;;4.30;3.90;;;;;;;13.80;nan;99519.47;5058185;28;20722;-80
2023/06/03 02:17:24;;;;;;;5.10;3.80;;;;;;;13.89;nan;99514.50;5061945;28;20207;-79
2023/06/03 02:19:51;;;;;;;5.80;3.57;;;;;;;13.88;nan;99520.94;5058583;28;20264;-80
2023/06/03 02:22:18;;;;;;;4.53;4.03;;;;;;;13.88;nan;99519.06;5053835;28;20672;-79
2023/06/03 02:24:46;;;;;;;5.03;3.77;;;;;;;13.68;nan;99526.78;5048025;28;20240;-81
2023/06/03 02:27:14;;;;;;;5.60;3.90;;;;;;;13.58;nan;99530.09;5069235;28;20680;-79
2023/06/03 02:29:45;;;;;;;8.10;4.10;;;;;;;13.54;nan;99530.84;5072418;28;20187;-78
2023/06/03 02:32:11;;;;;;;6.20;4.00;;;;;;;13.66;nan;99535.13;5051294;28;20212;-79
2023/06/03 02:34:39;;;;;;;5.87;3.83;;;;;;;13.69;nan;99533.81;5052665;28;20203;-79
2023/06/03 02:37:10;;;;;;;4.27;3.83;;;;;;;13.60;nan;99548.72;5035868;28;20581;-79
2023/06/03 02:39:37;;;;;;;10.07;4.50;;;;;;;13.60;nan;99546.84;5051065;28;20192;-79
2023/06/03 02:42:05;;;;;;;5.43;3.77;;;;;;;13.57;nan;99547.34;5065185;28;20187;-79
2023/06/03 02:44:31;;;;;;;5.30;3.90;;;;;;;13.45;nan;99543.03;5060426;28;20744;-79
2023/06/03 02:46:59;;;;;;;5.13;3.87;;;;;;;13.50;nan;99549.34;5057700;28;20202;-79
2023/06/03 02:49:26;;;;;;;6.07;3.80;;;;;;;13.57;nan;99547.34;5046784;28;20673;-79
2023/06/03 02:51:54;;;;;;;4.80;3.83;;;;;;;13.53;nan;99554.25;5054786;28;20216;-79
2023/06/03 02:54:21;;;;;;;4.90;3.90;;;;;;;13.54;nan;99555.06;5058630;28;20198;-80
2023/06/03 02:56:48;;;;;;;6.47;3.73;;;;;;;13.44;nan;99555.69;5045040;28;20216;-80
2023/06/03 02:59:15;;;;;;;5.53;4.17;;;;;;;13.53;nan;99550.75;5067982;28;20202;-79
2023/06/03 03:01:42;;;;;;;5.07;4.10;;;;;;;13.44;nan;99555.69;5059200;28;20190;-80
2023/06/03 03:04:09;;;;;;;7.87;4.30;;;;;;;13.30;nan;99558.91;5068641;28;20239;-79
2023/06/03 03:06:37;;;;;;;4.87;3.93;;;;;;;13.45;nan;99560.00;5058524;28;20240;-80
2023/06/03 03:09:07;;;;;;;5.00;4.33;;;;;;;13.21;nan;99559.25;5055187;28;20235;-80
2023/06/03 03:11:39;;;;;;;6.20;4.10;;;;;;;13.44;nan;99562.94;5055939;28;20275;-80
2023/06/03 03:14:07;;;;;;;4.43;4.00;;;;;;;13.24;nan;99558.00;5067946;28;20226;-79
2023/06/03 03:16:35;;;;;;;3.77;3.47;;;;;;;13.20;nan;99560.31;5052751;28;20280;-79
2023/06/03 03:19:03;;;;;;;6.80;4.30;;;;;;;13.14;nan;99563.16;5060858;28;20323;-79
2023/06/03 03:21:30;;;;;;;4.77;3.93;;;;;;;13.09;nan;99566.53;5059561;28;20200;-79
2023/06/03 03:24:01;;;;;;;4.97;3.70;;;;;;;13.01;nan;99558.00;5054370;28;20642;-80
2023/06/03 03:26:31;;;;;;;4.60;3.87;;;;;;;13.01;nan;99566.91;5059174;28;20767;-80
2023/06/03 03:28:58;;;;;;;5.00;4.50;;;;;;;12.94;nan;99560.00;5037181;28;20191;-80
2023/06/03 03:31:26;;;;;;;6.80;3.90;;;;;;;13.06;nan;99561.63;5057203;28;20242;-79
2023/06/03 03:33:54;;;;;;;5.20;4.03;;;;;;;13.10;nan;99561.97;5040449;28;20234;-78
2023/06/03 03:36:24;;;;;;;4.47;3.90;;;;;;;12.97;nan;99560.34;5049345;28;20207;-79
2023/06/03 03:39:02;;;;;;;5.23;3.50;;;;;;;12.98;nan;99567.34;5047575;28;20674;-79
2023/06/03 03:41:33;;;;;;;5.70;4.00;;;;;;;13.05;nan;99575.31;5048902;28;20200;-79
2023/06/03 03:44:00;;;;;;;7.37;3.90;;;;;;;13.00;nan;99585.94;5040404;28;20700;-79
2023/06/03 03:46:27;;;;;;;5.90;3.80;;;;;;;13.12;nan;99590.28;5046680;28;20187;-79
2023/06/03 03:48:54;;;;;;;5.97;3.97;;;;;;;13.19;nan;99593.69;5053892;28;20244;-79
2023/06/03 03:51:21;;;;;;;4.73;3.90;;;;;;;13.25;nan;99599.16;5046619;28;20206;-79
2023/06/03 03:53:49;;;;;;;4.63;3.87;;;;;;;13.44;nan;99606.00;5061165;28;20203;-79
2023/06/03 03:56:26;;;;;;;4.27;3.73;;;;;;;13.35;nan;99593.97;5066849;28;20713;-80
2023/06/03 03:58:57;;;;;;;4.33;3.40;;;;;;;13.46;nan;99602.03;5048556;28;20215;-80
2023/06/03 04:01:29;;;;;;;4.10;3.73;;;;;;;13.45;nan;99604.94;5056425;28;20325;-79
2023/06/03 04:04:10;;;;;;;3.77;3.33;;;;;;;13.77;nan;99603.41;5065268;28;20195;-79
2023/06/03 04:06:37;;;;;;;5.00;3.80;;;;;;;14.02;nan;99608.47;5036718;28;20205;-81
2023/06/03 04:09:07;;;;;;;4.93;3.60;;;;;;;13.93;nan;99610.72;5054137;28;20268;-79
2023/06/03 04:11:40;;;;;;;4.60;3.47;;;;;;;13.61;nan;99617.66;5048572;28;20684;-80
2023/06/03 04:14:11;;;;;;;4.73;3.60;;;;;;;13.61;nan;99623.88;5050179;28;20277;-79
2023/06/03 04:16:57;;;;;;;5.13;3.63;;;;;;;14.35;nan;99623.84;5058590;28;20208;-79
2023/06/03 04:19:41;;;;;;;6.90;3.70;;;;;;;15.41;nan;99617.34;5047377;28;20583;-79
2023/06/03 04:22:18;;;;;;;7.43;3.50;;;;;;;16.29;nan;99613.44;5045651;28;20206;-79
2023/06/03 04:24:45;;;;;;;4.33;3.20;;;;;;;17.15;nan;99614.91;5065948;28;20201;-79
2023/06/03 04:27:14;;;;;;;6.17;3.10;;;;;;;17.10;nan;99614.06;5052352;28;20200;-79
2023/06/03 04:29:41;;;;;;;5.40;3.30;;;;;;;17.96;nan;99622.56;5050379;28;20555;-80
2023/06/03 04:32:08;;;;;;;3.30;3.00;;;;;;;18.42;nan;99623.44;5065885;28;20280;-79
2023/06/03 04:34:48;;;;;;;5.30;3.30;;;;;;;17.47;nan;99624.81;5056967;28;20200;-80
2023/06/03 04:37:15;;;;;;;5.33;3.00;;;;;;;17.01;nan;99612.94;5045798;28;20211;-80
2023/06/03 04:39:43;;;;;;;4.23;2.90;;;;;;;16.29;nan;99621.56;5059263;28;20197;-79
2023/06/03 04:42:12;;;;;;;6.07;3.33;;;;;;;16.20;nan;99617.69;5057784;28;20198;-79
2023/06/03 04:44:40;;;;;;;6.83;3.10;;;;;;;15.59;nan;99621.63;5058890;28;20627;-79
2023/06/03 04:47:11;;;;;;;5.20;3.30;;;;;;;15.69;nan;99627.97;5055359;28;20185;-80
2023/06/03 04:49:39;;;;;;;6.50;3.27;;;;;;;15.56;nan;99630.25;5055668;28;20181;-79
2023/06/03 04:52:09;;;;;;;4.33;2.87;;;;;;;15.24;nan;99630.09;5054942;28;20557;-79
2023/06/03 04:54:43;;;;;;;5.10;2.70;;;;;;;15.61;nan;99635.72;5054151;28;20683;-80
2023/06/03 04:57:12;;;;;;;3.77;3.20;;;;;;;15.66;nan;99638.47;5053515;28;20308;-79
2023/06/03 04:59:40;;;;;;;5.10;3.23;;;;;;;15.76;nan;99636.72;5053767;28;20182;-79
2023/06/03 05:02:08;;;;;;;4.90;3.13;;;;;;;15.58;nan;99631.66;5053933;28;20236;-79
2023/06/03 05:04:37;;;;;;;4.17;3.17;;;;;;;15.58;nan;99630.81;5053557;28;20193;-80
2023/06/03 05:07:05;;;;;;;3.33;2.90;;;;;;;15.84;nan;99638.13;5053641;28;20660;-79
2023/06/03 05:09:32;;;;;;;4.53;3.00;;;;;;;15.91;nan;99638.75;5053216;28;20639;-80
2023/06/03 05:12:00;;;;;;;4.77;3.10;;;;;;;16.11;nan;99640.84;5037145;28;20200;-78
2023/06/03 05:14:27;;;;;;;4.60;3.03;;;;;;;15.56;nan;99636.47;5054015;28;20253;-79
2023/06/03 05:16:54;;;;;;;3.83;3.03;;;;;;;15.97;nan;99643.13;5053010;28;20679;-79
2023/06/03 05:19:22;;;;;;;4.00;3.07;;;;;;;15.40;nan;99635.41;5053797;28;20224;-79
2023/06/03 05:21:49;;;;;;;3.03;2.70;;;;;;;16.00;nan;99653.47;5053690;28;20694;-79
2023/06/03 05:24:16;;;;;;;5.20;3.10;;;;;;;16.07;nan;99650.53;5053296;28;20196;-81
2023/06/03 05:26:43;;;;;;;6.80;3.30;;;;;;;15.95;nan;99649.88;5055153;28;20185;-80
2023/06/03 05:29:10;;;;;;;5.33;3.20;;;;;;;16.13;nan;99650.34;5055291;28;20276;-79
2023/06/03 05:31:37;;;;;;;4.90;3.40;;;;;;;15.51;nan;99639.09;5057754;28;20281;-80
2023/06/03 05:34:04;;;;;;;3.80;2.80;;;;;;;16.04;nan;99642.94;5056920;28;20281;-79
2023/06/03 05:36:31;;;;;;;4.30;3.20;;;;;;;16.36;nan;99649.22;5057236;28;20692;-80
2023/06/03 05:39:01;;;;;;;5.53;3.03;;;;;;;16.52;nan;99650.13;5040974;28;20220;-80
2023/06/03 05:41:29;;;;;;;4.80;2.80;;;;;;;16.53;nan;99647.19;5057069;28;20188;-80
2023/06/03 05:43:56;;;;;;;4.83;2.87;;;;;;;16.28;nan;99653.19;5057193;28;20209;-79
2023/06/03 05:46:23;;;;;;;6.67;2.80;;;;;;;16.42;nan;99648.19;5056365;28;20277;-79
2023/06/03 05:48:51;;;;;;;4.23;2.60;;;;;;;16.83;nan;99651.25;5068170;28;20201;-80
2023/06/03 05:51:19;;;;;;;3.03;2.67;;;;;;;16.52;nan;99648.25;5077156;28;20270;-79
2023/06/03 05:53:47;;;;;;;3.43;2.60;;;;;;;16.83;nan;99646.66;5068345;28;20201;-80
2023/06/03 05:56:17;;;;;;;3.93;2.87;;;;;;;16.50;nan;99641.47;5068083;28;20216;-79
2023/06/03 05:58:45;;;;;;;4.13;2.50;;;;;;;16.80;nan;99636.31;5058720;28;20550;-79
2023/06/03 06:01:12;;;;;;;4.33;2.50;;;;;;;17.03;nan;99627.81;5060384;28;20193;-79
2023/06/03 06:03:41;;;;;;;4.60;2.80;;;;;;;16.70;nan;99633.56;5069943;28;20197;-79
2023/06/03 06:06:08;;;;;;;5.50;2.50;;;;;;;16.73;nan;99633.88;5076359;28;20192;-80
2023/06/03 06:08:35;;;;;;;4.07;2.27;;;;;;;16.92;nan;99639.69;5068697;28;20280;-79
2023/06/03 06:11:01;;;;;;;4.43;2.40;;;;;;;16.04;nan;99645.66;5056380;28;20251;-79
2023/06/03 06:13:28;;;;;;;2.83;2.20;;;;;;;16.32;nan;99647.28;5057699;28;20186;-79
2023/06/03 06:16:03;;;;;;;4.43;2.60;;;;;;;16.65;nan;99649.75;5057001;28;20200;-79
2023/06/03 06:18:31;;;;;;;5.13;2.63;;;;;;;16.98;nan;99645.94;5039808;28;20684;-79
2023/06/03 06:20:58;;;;;;;4.50;2.57;;;;;;;16.82;nan;99644.19;5056437;28;20177;-79
2023/06/03 06:23:26;;;;;;;4.13;2.50;;;;;;;16.87;nan;99642.34;5056044;28;20189;-79
2023/06/03 06:25:54;;;;;;;3.50;2.47;;;;;;;17.00;nan;99638.38;5075482;28;20181;-79
2023/06/03 06:28:28;;;;;;;7.57;2.93;;;;;;;16.80;nan;99636.31;5076083;28;20189;-80
2023/06/03 06:31:03;;;;;;;4.33;2.30;;;;;;;16.88;nan;99643.97;5072769;28;20201;-79
2023/06/03 06:33:36;;;;;;;4.47;2.27;;;;;;;17.35;nan;99641.28;5040244;28;20196;-79
2023/06/03 06:36:20;;;;;;;5.43;2.60;;;;;;;17.56;nan;99634.88;5055736;28;20221;-79
2023/06/03 06:38:47;;;;;;;4.23;3.17;;;;;;;17.50;nan;99635.09;5055705;28;20198;-79
2023/06/03 06:41:15;;;;;;;5.23;2.73;;;;;;;17.81;nan;99642.31;5054724;28;20255;-79
2023/06/03 06:43:42;;;;;;;3.23;2.33;;;;;;;17.67;nan;99634.94;5055524;28;20545;-79
2023/06/03 06:46:10;;;;;;;6.73;2.70;;;;;;;17.41;nan;99639.41;5068070;28;20197;-79
2023/06/03 06:48:38;;;;;;;4.37;2.47;;;;;;;17.52;nan;99632.97;5061496;28;20176;-81
2023/06/03 06:51:12;;;;;;;2.77;2.47;;;;;;;17.77;nan;99643.13;5068932;28;20208;-80
2023/06/03 06:53:40;;;;;;;2.83;2.40;;;;;;;17.41;nan;99634.78;5085633;28;20323;-79
2023/06/03 06:56:11;;;;;;;6.03;2.70;;;;;;;17.11;nan;99634.66;5059215;28;20200;-80
2023/06/03 06:58:58;;;;;;;15.77;3.00;;;;;;;17.88;nan;99639.34;5064323;28;20268;-80
2023/06/03 07:01:25;;;;;;;4.33;2.53;;;;;;;17.85;nan;99639.88;5061726;28;20218;-79
2023/06/03 07:03:56;;;;;;;4.77;2.50;;;;;;;17.43;nan;99638.06;5044473;28;20198;-79
2023/06/03 07:06:24;;;;;;;4.80;2.63;;;;;;;17.70;nan;99639.81;5059965;28;20193;-79
2023/06/03 07:08:56;;;;;;;3.80;2.47;;;;;;;18.27;nan;99639.69;5061087;28;20229;-79
2023/06/03 07:11:25;;;;;;;4.23;2.23;;;;;;;18.56;nan;99640.84;5059270;28;20194;-79
2023/06/03 07:13:56;;;;;;;3.70;2.50;;;;;;;18.27;nan;99650.53;5058993;28;20239;-79
2023/06/03 07:16:24;;;;;;;3.57;2.60;;;;;;;18.22;nan;99639.69;5058984;28;20257;-79
2023/06/03 07:18:53;;;;;;;5.07;2.73;;;;;;;17.99;nan;99638.28;5059628;28;20217;-79
2023/06/03 07:21:26;;;;;;;3.73;2.60;;;;;;;18.25;nan;99653.50;5064771;28;20196;-79
2023/06/03 07:23:58;;;;;;;5.73;2.60;;;;;;;18.51;nan;99643.50;5063081;28;20197;-80
2023/06/03 07:26:27;;;;;;;4.17;2.47;;;;;;;18.45;nan;99648.13;5062586;28;20182;-79
2023/06/03 07:28:56;;;;;;;5.73;2.37;;;;;;;18.58;nan;99640.53;5044729;28;20213;-79
2023/06/03 07:31:23;;;;;;;2.73;2.37;;;;;;;18.56;nan;99648.16;5062418;28;20189;-79
2023/06/03 07:33:55;;;;;;;3.57;2.50;;;;;;;18.73;nan;99640.56;5056738;28;20278;-80
2023/06/03 07:36:30;;;;;;;4.63;2.33;;;;;;;18.83;nan;99643.25;5054081;28;20205;-80
2023/06/03 07:39:04;;;;;;;2.87;2.40;;;;;;;18.81;nan;99640.00;5058528;28;20217;-80
2023/06/03 07:41:50;;;;;;;4.73;2.13;;;;;;;18.88;nan;99638.66;5061000;28;20213;-79
2023/06/03 07:44:42;;;;;;;2.97;2.10;;;;;;;18.93;nan;99637.81;5060025;28;20205;-79
2023/06/03 07:47:11;;;;;;;4.00;1.80;;;;;;;18.78;nan;99644.09;5060120;28;20180;-80
2023/06/03 07:49:38;;;;;;;3.83;2.80;;;;;;;18.43;nan;99642.13;5055501;28;20198;-79
2023/06/03 07:52:05;;;;;;;3.87;2.20;;;;;;;18.86;nan;99645.41;5060673;28;20189;-80
2023/06/03 07:54:34;;;;;;;2.83;2.40;;;;;;;19.09;nan;99636.69;5059574;28;20722;-79
2023/06/03 07:57:01;;;;;;;3.73;2.37;;;;;;;19.31;nan;99634.47;5054601;28;20181;-81
2023/06/03 07:59:28;;;;;;;4.33;2.40;;;;;;;18.85;nan;99641.88;5054918;28;20207;-79
2023/06/03 08:01:58;;;;;;;4.00;2.10;;;;;;;19.47;nan;99631.72;5056659;28;20182;-80
2023/06/03 08:04:34;;;;;;;2.47;2.20;;;;;;;19.60;nan;99642.81;5053487;28;20189;-80
2023/06/03 08:07:02;;;;;;;2.50;2.27;;;;;;;19.20;nan;99649.16;5054651;28;20649;-81
2023/06/03 08:09:33;;;;;;;3.00;2.27;;;;;;;19.75;nan;99648.19;5055979;28;20665;-79
2023/06/03 08:12:07;;;;;;;2.77;2.03;;;;;;;19.88;nan;99643.22;5053910;28;20195;-79
2023/06/03 08:14:36;;;;;;;3.07;2.30;;;;;;;19.40;nan;99645.59;5058006;28;20185;-79
2023/06/03 08:17:09;;;;;;;2.67;2.30;;;;;;;19.83;nan;99641.34;5057867;28;20192;-80
2023/06/03 08:19:36;;;;;;;2.87;2.20;;;;;;;19.54;nan;99638.50;5058007;28;20205;-81
2023/06/03 08:22:09;;;;;;;3.50;2.30;;;;;;;20.03;nan;99640.41;5058717;28;20264;-79
2023/06/03 08:24:36;;;;;;;2.67;2.03;;;;;;;20.23;nan;99640.31;5058542;28;20178;-79
2023/06/03 08:27:03;;;;;;;3.07;2.10;;;;;;;19.96;nan;99643.47;5059230;28;20364;-79
2023/06/03 08:29:30;;;;;;;3.53;2.20;;;;;;;19.99;nan;99636.66;5059170;28;20189;-79
2023/06/03 08:31:57;;;;;;;3.73;2.30;;;;;;;20.75;nan;99630.66;5055649;28;20240;-83
2023/06/03 08:34:24;;;;;;;4.83;2.27;;;;;;;21.14;nan;99636.06;5053070;28;20179;-81
2023/06/03 08:36:51;;;;;;;4.53;2.50;;;;;;;20.77;nan;99639.34;5053322;28;20183;-80
2023/06/03 08:39:18;;;;;;;3.40;2.50;;;;;;;21.04;nan;99632.28;5053507;28;20665;-81
2023/06/03 08:41:46;;;;;;;3.53;2.37;;;;;;;20.80;nan;99636.91;5052896;28;20257;-80
2023/06/03 08:44:21;;;;;;;2.37;2.00;;;;;;;21.62;nan;99637.66;5054333;28;20207;-80
2023/06/03 08:47:02;;;;;;;4.37;2.17;;;;;;;22.27;nan;99635.16;5053822;28;20669;-82
2023/06/03 08:49:59;;;;;;;2.87;2.10;;;;;;;21.99;nan;99633.38;5054587;28;20247;-82
2023/06/03 08:52:30;;;;;;;3.53;2.23;;;;;;;22.36;nan;99633.38;5051700;28;20648;-82
2023/06/03 08:55:00;;;;;;;3.33;2.27;;;;;;;22.81;nan;99638.13;5061723;28;20191;-83
2023/06/03 08:57:44;;;;;;;2.70;2.30;;;;;;;22.33;nan;99636.69;5048867;28;20182;-81
2023/06/03 09:00:12;;;;;;;3.03;2.10;;;;;;;23.36;nan;99635.47;5063114;28;20566;-82
2023/06/03 09:02:39;;;;;;;5.50;2.17;;;;;;;23.12;nan;99632.91;5033971;28;20254;-83
2023/06/03 09:05:07;;;;;;;5.37;2.30;;;;;;;23.48;nan;99630.31;5066014;28;20654;-83
2023/06/03 09:07:34;;;;;;;2.53;1.80;;;;;;;23.95;nan;99629.03;5046459;28;20185;-83
2023/06/03 09:10:03;;;;;;;4.27;1.93;;;;;;;23.15;nan;99635.03;5046905;28;20189;-82
2023/06/03 09:12:30;;;;;;;2.80;1.63;;;;;;;22.76;nan;99627.28;5050554;28;20210;-83
2023/06/03 09:14:58;;;;;;;5.17;1.83;;;;;;;23.79;nan;99626.97;5068482;28;20241;-84
2023/06/03 09:17:26;;;;;;;2.17;1.77;;;;;;;24.08;nan;99627.38;5066696;28;20188;-81
2023/06/03 09:19:55;;;;;;;5.78;2.00;;;;;;;23.48;nan;99637.72;5073998;28;20699;-82
2023/06/03 09:22:22;;;;;;;4.18;1.73;;;;;;;23.09;nan;99633.53;5060880;28;20189;-82
2023/06/03 09:24:48;;;;;;;5.23;1.97;;;;;;;21.89;nan;99626.13;5067990;28;20195;-83
2023/06/03 09:27:15;;;;;;;4.07;2.00;;;;;;;22.22;nan;99627.84;5059018;28;20664;-81
2023/06/03 09:29:42;;;;;;;3.70;2.15;;;;;;;22.70;nan;99638.59;5059549;28;20186;-81
2023/06/03 09:32:09;;;;;;;2.97;1.80;;;;;;;22.27;nan;99630.50;5058698;28;20185;-81
2023/06/03 09:34:36;;;;;;;4.60;1.93;;;;;;;23.14;nan;99627.94;5058410;28;20186;-80
2023/06/03 09:37:09;;;;;;;3.88;1.92;;;;;;;23.11;nan;99625.00;5059550;28;20258;-81
2023/06/03 09:39:37;;;;;;;4.60;1.90;;;;;;;22.49;nan;99629.88;5055605;28;20204;-82
2023/06/03 09:42:04;;;;;;;1.73;1.60;;;;;;;21.76;nan;99624.94;5059488;28;20218;-82
2023/06/03 09:44:42;;;;;;;3.43;1.90;;;;;;;21.44;nan;99625.63;5053141;28;20218;-83
2023/06/03 09:47:11;;;;;;;2.13;1.80;;;;;;;21.09;nan;99634.13;5054455;28;20202;-82
2023/06/03 09:49:38;;;;;;;2.97;1.80;;;;;;;21.59;nan;99631.97;5061089;28;20216;-82
2023/06/03 09:52:33;;;;;;;4.73;2.00;;;;;;;20.56;nan;99641.44;5062504;28;20192;-82
2023/06/03 09:55:04;;;;;;;5.63;2.43;;;;;;;21.38;nan;99636.84;5055043;28;20185;-82
2023/06/03 09:57:31;;;;;;;3.63;1.87;;;;;;;21.86;nan;99627.53;5061473;28;20575;-81
2023/06/03 10:00:11;;;;;;;2.00;1.80;;;;;;;21.76;nan;99632.28;5053929;28;20690;-82
2023/06/03 10:02:43;;;;;;;2.90;1.63;;;;;;;22.15;nan;99635.59;5071473;28;20197;-82
2023/06/03 10:05:36;;;;;;;3.87;1.93;;;;;;;21.36;nan;99622.72;5055762;28;20195;-82
2023/06/03 10:08:04;;;;;;;4.87;1.90;;;;;;;20.45;nan;99629.81;5045482;28;20231;-81
2023/06/03 10:10:33;;;;;;;3.23;1.57;;;;;;;21.53;nan;99623.03;5062240;28;20653;-82
2023/06/03 10:13:18;;;;;;;3.40;1.80;;;;;;;21.69;nan;99629.13;5056081;28;20193;-80
2023/06/03 10:15:45;;;;;;;2.80;1.70;;;;;;;21.41;nan;99625.38;5062214;28;20186;-82
2023/06/03 10:18:12;;;;;;;5.93;2.10;;;;;;;21.30;nan;99626.59;5054210;28;20215;-83
2023/06/03 10:20:41;;;;;;;4.37;1.80;;;;;;;21.47;nan;99625.03;5054687;28;20188;-82
2023/06/03 10:23:09;;;;;;;2.20;1.60;;;;;;;21.46;nan;99619.88;5058889;28;20198;-82
2023/06/03 10:25:45;;;;;;;2.47;1.80;;;;;;;21.76;nan;99615.94;5038151;28;20761;-81
2023/06/03 10:28:12;;;;;;;4.27;2.10;;;;;;;21.52;nan;99615.97;5064287;28;20196;-83
2023/06/03 10:30:41;;;;;;;3.10;1.60;;;;;;;21.68;nan;99616.59;5058437;28;20183;-82
2023/06/03 10:33:08;;;;;;;3.00;1.60;;;;;;;21.70;nan;99619.81;5053421;28;20199;-82
2023/06/03 10:35:36;;;;;;;1.73;1.63;;;;;;;22.02;nan;99605.53;5054814;28;20185;-81
2023/06/03 10:38:05;;;;;;;3.90;2.00;;;;;;;21.23;nan;99607.84;5062931;28;20242;-80
2023/06/03 10:40:33;;;;;;;3.40;1.93;;;;;;;21.06;nan;99611.03;5048237;28;20215;-83
2023/06/03 10:43:02;;;;;;;4.30;1.80;;;;;;;21.37;nan;99600.59;5053582;28;20223;-82
2023/06/03 10:45:30;;;;;;;2.33;1.70;;;;;;;21.52;nan;99602.34;5057835;28;20215;-82
2023/06/03 10:48:00;;;;;;;2.50;1.67;;;;;;;21.95;nan;99609.44;5050058;28;20199;-84
2023/06/03 10:50:38;;;;;;;2.10;1.80;;;;;;;22.19;nan;99612.06;5055217;28;20190;-80
2023/06/03 10:53:13;;;;;;;1.97;1.70;;;;;;;22.12;nan;99602.63;5048583;28;20251;-83
2023/06/03 10:55:46;;;;;;;4.70;1.87;;;;;;;22.18;nan;99607.72;5040832;28;20218;-82
2023/06/03 10:58:22;;;;;;;2.50;1.80;;;;;;;22.18;nan;99607.72;5061264;28;20190;-83
2023/06/03 11:01:02;;;;;;;2.53;1.77;;;;;;;21.52;nan;99602.34;5046691;28;20553;-82
2023/06/03 11:03:32;;;;;;;3.00;1.63;;;;;;;22.31;nan;99609.69;5044147;28;20660;-83
2023/06/03 11:06:23;;;;;;;2.33;1.50;;;;;;;21.76;nan;99599.56;5053625;28;20228;-83
2023/06/03 11:09:05;;;;;;;2.90;1.90;;;;;;;21.60;nan;99596.25;5064898;28;20266;-82
2023/06/03 11:11:41;;;;;;;2.77;1.80;;;;;;;21.91;nan;99608.38;5072242;28;20190;-82
2023/06/03 11:14:12;;;;;;;2.20;2.00;;;;;;;22.21;nan;99598.94;5063584;28;20193;-83
2023/06/03 11:16:57;;;;;;;2.20;2.00;;;;;;;22.78;nan;99597.75;5060642;28;20250;-82
2023/06/03 11:19:34;;;;;;;2.30;1.70;;;;;;;22.77;nan;99598.03;5048919;28;20211;-83
2023/06/03 11:22:04;;;;;;;2.70;1.90;;;;;;;23.39;nan;99595.75;5058737;28;20222;-82
2023/06/03 11:24:37;;;;;;;2.47;2.13;;;;;;;23.17;nan;99596.47;5056912;28;20193;-83
2023/06/03 11:27:13;;;;;;;4.43;1.80;;;;;;;23.11;nan;99594.94;5056003;28;20320;-83
2023/06/03 11:29:45;;;;;;;3.75;2.05;;;;;;;23.26;nan;99589.19;5073480;28;20212;-82
2023/06/03 11:32:23;;;;;;;2.42;1.70;;;;;;;23.03;nan;99596.47;5054702;28;20666;-83
2023/06/03 11:35:04;;;;;;;2.15;1.70;;;;;;;22.40;nan;99598.91;5059748;28;20263;-83
2023/06/03 11:37:40;;;;;;;2.45;1.70;;;;;;;22.36;nan;99589.69;5060394;28;20194;-82
2023/06/03 11:40:16;;;;;;;2.13;1.83;;;;;;;23.04;nan;99580.88;5060893;28;20675;-82
2023/06/03 11:42:46;;;;;;;2.70;2.00;;;;;;;22.76;nan;99580.84;5059097;28;20193;-83
2023/06/03 11:45:20;;;;;;;2.40;1.83;;;;;;;22.82;nan;99587.00;5056656;28;20227;-83
2023/06/03 11:47:47;;;;;;;2.47;2.13;;;;;;;23.15;nan;99585.84;5055271;28;20189;-83
2023/06/03 11:50:16;;;;;;;3.13;1.80;;;;;;;23.78;nan;99578.84;5056214;28;20208;-82
2023/06/03 11:52:43;;;;;;;1.98;1.88;;;;;;;23.81;nan;99570.00;5055266;28;20177;-82
2023/06/03 11:55:10;;;;;;;2.78;2.15;;;;;;;23.33;nan;99572.41;5056331;28;20201;-82
2023/06/03 11:57:39;;;;;;;2.97;1.92;;;;;;;23.58;nan;99569.94;5052830;28;20200;-82
2023/06/03 12:00:10;;;;;;;2.47;2.17;;;;;;;23.17;nan;99575.44;5053751;28;20206;-82
2023/06/03 12:02:49;;;;;;;2.20;2.00;;;;;;;23.62;nan;99570.13;5062756;28;20250;-82
2023/06/03 12:05:17;;;;;;;2.55;1.70;;;;;;;22.98;nan;99576.63;5053098;28;20598;-84